»·PEaware :: N12529 KOXR-KSMX

N12529 :: KOXR-KSMX

FLIGHT INFORMATION

Flight Status: Arrived
Operator: Privately registered:
United States
More flights under this callsign
Pilot: Eduardo Elias G. (24838)
Aircraft: CESSNA 172 SKYHAWK
(C172)
More flights by this aircraft type
Origin: KOXR Oxnard
United States
Destination: KSMX Santa Maria Pub/Capt Hancock
United States
More flights between these airports :: More routes between these airports
Route: V25 RZS RZS286R KOAKS
File this flight plan on PilotEdge
Remarks: Tec route VTUP34
Altitude:
(Current/Filed)
8,000ft
Speed:
(Current/Filed)
125kts
Departed: 18-Oct-20 09:31 PM
Arrived: 18-Oct-20 10:26 PM
Distance/Time
Traveled:
75nm/0:55
Distance/Time
To Go:
Arrived

Flight Plot

Page will automatically refresh every two minutes.


Map Options




Map Legend


Flown Route
Filed Route
Departure Airport
Arrival Airport
Navaid (VOR, NDB)
Fix

Horizontal Profiles

Position Reports

Time Latitude Longitude Heading Altitude Ground
Speed
18-Oct-20 21:06 34.198999 -119.197767 269 41ft 0kts
18-Oct-20 21:07 34.198999 -119.197767 269 41ft 0kts
18-Oct-20 21:08 34.198999 -119.197768 269 41ft 0kts
18-Oct-20 21:09 34.198999 -119.197768 269 41ft 0kts
18-Oct-20 21:10 34.198999 -119.197768 269 41ft 0kts
18-Oct-20 21:11 34.198999 -119.197768 269 41ft 0kts
18-Oct-20 21:12 34.198999 -119.197768 269 41ft 0kts
18-Oct-20 21:12 34.198999 -119.197768 269 41ft 0kts
18-Oct-20 21:14 34.198999 -119.197768 269 41ft 0kts
18-Oct-20 21:14 34.198999 -119.197768 269 41ft 0kts
18-Oct-20 21:16 34.198999 -119.197768 269 41ft 0kts
18-Oct-20 21:16 34.198999 -119.197768 269 41ft 0kts
18-Oct-20 21:17 34.198999 -119.197768 269 41ft 0kts
18-Oct-20 21:18 34.198999 -119.197768 269 41ft 0kts
18-Oct-20 21:19 34.198999 -119.197768 269 41ft 0kts
18-Oct-20 21:20 34.198999 -119.197768 269 41ft 0kts
18-Oct-20 21:21 34.198999 -119.197768 269 41ft 0kts
18-Oct-20 21:22 34.198999 -119.197768 269 41ft 0kts
18-Oct-20 21:23 34.198999 -119.197768 269 41ft 0kts
18-Oct-20 21:24 34.198999 -119.197787 269 41ft 0kts
18-Oct-20 21:25 34.198999 -119.197786 269 41ft 0kts
18-Oct-20 21:26 34.199505 -119.198067 26 41ft 6kts
18-Oct-20 21:27 34.199893 -119.197472 336 41ft 0kts
18-Oct-20 21:28 34.199893 -119.197472 336 41ft 0kts
18-Oct-20 21:29 34.200735 -119.197762 272 41ft 2kts
18-Oct-20 21:30 34.199536 -119.220085 261 562ft 78kts
18-Oct-20 21:31 34.196182 -119.247309 263 1326ft 83kts
18-Oct-20 21:32 34.192374 -119.274202 265 2181ft 80kts
18-Oct-20 21:33 34.187079 -119.300065 266 2982ft 76kts
18-Oct-20 21:34 34.184255 -119.325655 305 3639ft 79kts
18-Oct-20 21:35 34.198892 -119.342909 314 4369ft 72kts
18-Oct-20 21:36 34.213990 -119.360056 307 4985ft 77kts
18-Oct-20 21:37 34.227765 -119.379360 313 5628ft 75kts
18-Oct-20 21:38 34.242757 -119.397408 315 6223ft 76kts
18-Oct-20 21:39 34.257993 -119.415697 317 6787ft 78kts
18-Oct-20 21:40 34.273317 -119.434163 311 7321ft 78kts
18-Oct-20 21:41 34.288715 -119.453094 314 7829ft 79kts
18-Oct-20 21:42 34.305488 -119.474057 312 8049ft 102kts
18-Oct-20 21:43 34.326077 -119.501418 313 7894ft 110kts
18-Oct-20 21:44 34.345964 -119.527900 310 7875ft 101kts
18-Oct-20 21:45 34.363144 -119.555377 303 7874ft 98kts
18-Oct-20 21:46 34.379395 -119.583004 317 7846ft 99kts
18-Oct-20 21:47 34.397760 -119.607253 306 7944ft 93kts
18-Oct-20 21:48 34.413701 -119.633395 311 8014ft 95kts
18-Oct-20 21:49 34.430716 -119.659562 307 8065ft 105kts
18-Oct-20 21:50 34.450057 -119.688799 309 8107ft 111kts
18-Oct-20 21:51 34.470728 -119.718973 311 8047ft 116kts
18-Oct-20 21:52 34.494559 -119.747317 314 7919ft 118kts
18-Oct-20 21:53 34.513366 -119.780371 300 7851ft 118kts
18-Oct-20 21:54 34.530211 -119.814266 302 7848ft 117kts
18-Oct-20 21:55 34.547330 -119.847744 303 7862ft 116kts
18-Oct-20 21:56 34.563184 -119.882277 301 7714ft 118kts
18-Oct-20 21:57 34.580521 -119.915845 304 7409ft 117kts
18-Oct-20 21:58 34.598601 -119.948751 305 7112ft 116kts
18-Oct-20 21:59 34.615709 -119.982523 301 6791ft 117kts
18-Oct-20 22:00 34.632650 -120.017376 301 6415ft 121kts
18-Oct-20 22:01 34.650175 -120.052382 303 6062ft 120kts
18-Oct-20 22:02 34.667751 -120.088513 301 5555ft 125kts
18-Oct-20 22:03 34.686121 -120.123952 303 5107ft 123kts
18-Oct-20 22:04 34.705985 -120.157738 305 4646ft 122kts
18-Oct-20 22:05 34.726585 -120.190247 301 4386ft 110kts
18-Oct-20 22:06 34.740387 -120.220756 301 4752ft 100kts
18-Oct-20 22:07 34.756728 -120.254218 306 4685ft 120kts
18-Oct-20 22:08 34.776001 -120.287148 298 4720ft 119kts
18-Oct-20 22:09 34.794253 -120.322971 319 4490ft 127kts
18-Oct-20 22:10 34.817849 -120.356394 312 4149ft 124kts
18-Oct-20 22:11 34.845912 -120.386461 310 3445ft 101kts
18-Oct-20 22:12 34.866640 -120.412049 313 2666ft 98kts
18-Oct-20 22:13 34.884627 -120.435279 323 1936ft 54kts
18-Oct-20 22:14 34.899378 -120.453565 319 1107ft 59kts
18-Oct-20 22:15 34.912274 -120.473086 314 1399ft 95kts
18-Oct-20 22:16 34.927170 -120.497367 292 2419ft 85kts
18-Oct-20 22:17 34.947603 -120.518566 332 2499ft 106kts
18-Oct-20 22:18 34.977163 -120.524755 356 2458ft 116kts
18-Oct-20 22:19 35.006310 -120.534162 299 2334ft 114kts
18-Oct-20 22:20 34.980631 -120.544210 158 2133ft 127kts
18-Oct-20 22:21 34.947898 -120.528658 124 1849ft 130kts
18-Oct-20 22:22 34.931864 -120.493803 134 1098ft 111kts
18-Oct-20 22:23 34.917654 -120.474733 131 503ft 60kts
18-Oct-20 22:24 34.905407 -120.460942 136 265ft 45kts
18-Oct-20 22:25 34.902910 -120.457393 41 265ft 10kts
18-Oct-20 22:26 34.904548 -120.455513 47 265ft 0kts
18-Oct-20 22:27 34.904551 -120.455509 46 265ft 0kts

Navigation Log

Ident Type
Flight plan parsing failed, navigation log unavailable